createdAt,value
2023-01-29T00:00:21.279Z,95118.28
2023-01-29T00:02:48.136Z,95109.53
2023-01-29T00:05:27.113Z,95112.13
2023-01-29T00:08:01.982Z,95118.78
2023-01-29T00:10:28.537Z,95108.84
2023-01-29T00:12:55.256Z,95101.09
2023-01-29T00:15:21.875Z,95098.69
2023-01-29T00:17:48.437Z,95112.81
2023-01-29T00:20:15.928Z,95108.38
2023-01-29T00:22:42.681Z,95115.31
2023-01-29T00:25:09.567Z,95114.72
2023-01-29T00:27:36.225Z,95107.84
2023-01-29T00:30:12.962Z,95100.38
2023-01-29T00:32:40.478Z,95105.78
2023-01-29T00:35:08.353Z,95108.84
2023-01-29T00:37:35.438Z,95109.34
2023-01-29T00:40:02.027Z,95120.84
2023-01-29T00:42:47.126Z,95114.78
2023-01-29T00:45:14.134Z,95102.97
2023-01-29T00:47:41.018Z,95102.97
2023-01-29T00:50:10.502Z,95098.50
2023-01-29T00:52:38.502Z,95102.47
2023-01-29T00:55:06.298Z,95092.94
2023-01-29T00:57:34.286Z,95096.59
2023-01-29T01:00:01.633Z,95087.75
2023-01-29T01:02:46.944Z,95100.59
2023-01-29T01:05:18.330Z,95097.91
2023-01-29T01:07:56.332Z,95101.38
2023-01-29T01:10:32.415Z,95108.34
2023-01-29T01:13:07.010Z,95098.22
2023-01-29T01:15:36.615Z,95097.41
2023-01-29T01:18:04.034Z,95101.25
2023-01-29T01:20:34.013Z,95100.19
2023-01-29T01:23:00.786Z,95100.38
2023-01-29T01:25:27.605Z,95095.41
2023-01-29T01:27:56.299Z,95106.66
2023-01-29T01:30:24.260Z,95101.19
2023-01-29T01:32:51.256Z,95105.34
2023-01-29T01:35:18.304Z,95104.53
2023-01-29T01:37:44.874Z,95103.56
2023-01-29T01:40:21.490Z,95108.94
2023-01-29T01:42:58.875Z,95108.13
2023-01-29T01:45:32.648Z,95111.81
2023-01-29T01:48:26.236Z,95105.13
2023-01-29T01:51:00.753Z,95105.56
2023-01-29T01:53:35.080Z,95099.78
2023-01-29T01:56:06.609Z,95096.03
2023-01-29T01:58:38.195Z,95084.16
2023-01-29T02:01:07.908Z,95082.47
2023-01-29T02:04:08.956Z,95090.09
2023-01-29T02:06:57.582Z,95088.50
2023-01-29T02:09:33.413Z,95082.59
2023-01-29T02:12:01.154Z,95084.59
2023-01-29T02:14:28.049Z,95083.16
2023-01-29T02:16:54.986Z,95082.84
2023-01-29T02:19:52.352Z,95093.09
2023-01-29T02:22:40.423Z,95086.53
2023-01-29T02:25:31.829Z,95096.69
2023-01-29T02:28:21.554Z,95093.19
2023-01-29T02:30:57.166Z,95100.09
2023-01-29T02:33:53.853Z,95100.50
2023-01-29T02:36:40.904Z,95093.78
2023-01-29T02:39:32.476Z,95086.06
2023-01-29T02:42:11.790Z,95098.28
2023-01-29T02:44:38.787Z,95094.84
2023-01-29T02:47:25.574Z,95092.88
2023-01-29T02:50:03.249Z,95104.03
2023-01-29T02:52:40.217Z,95096.38
2023-01-29T02:55:13.559Z,95096.69
2023-01-29T02:57:44.475Z,95094.63
2023-01-29T03:00:11.185Z,95110.47
2023-01-29T03:03:02.784Z,95112.53
2023-01-29T03:05:43.477Z,95110.31
2023-01-29T03:08:15.701Z,95116.88
2023-01-29T03:10:57.487Z,95112.09
2023-01-29T03:13:38.469Z,95120.66
2023-01-29T03:16:19.043Z,95120.66
2023-01-29T03:18:52.081Z,95114.13
2023-01-29T03:21:49.929Z,95123.69
2023-01-29T03:24:54.614Z,95112.59
2023-01-29T03:27:46.282Z,95114.63
2023-01-29T03:30:35.478Z,95107.00
2023-01-29T03:33:26.237Z,95109.72
2023-01-29T03:36:02.747Z,95102.84
2023-01-29T03:38:32.172Z,95100.72
2023-01-29T03:41:36.778Z,95100.66
2023-01-29T03:44:28.157Z,95104.53
2023-01-29T03:47:21.023Z,95102.88
2023-01-29T03:50:24.821Z,95105.47
2023-01-29T03:53:00.220Z,95105.13
2023-01-29T03:56:07.212Z,95106.38
2023-01-29T03:58:45.711Z,95103.03
2023-01-29T04:01:38.963Z,95107.44
2023-01-29T04:04:14.092Z,95107.06
2023-01-29T04:06:45.670Z,95105.31
2023-01-29T04:09:27.772Z,95103.72
2023-01-29T04:12:02.025Z,95109.94
2023-01-29T04:14:31.860Z,95106.09
2023-01-29T04:17:02.837Z,95114.66
2023-01-29T04:19:41.971Z,95111.56
2023-01-29T04:22:19.981Z,95110.66
2023-01-29T04:24:49.065Z,95109.03
2023-01-29T04:27:23.713Z,95107.63
2023-01-29T04:30:04.425Z,95108.94
2023-01-29T04:32:46.745Z,95102.56
2023-01-29T04:35:31.600Z,95095.91
2023-01-29T04:38:12.850Z,95100.47
2023-01-29T04:40:51.102Z,95099.69
2023-01-29T04:43:37.176Z,95091.72
2023-01-29T04:46:18.326Z,95097.22
2023-01-29T04:49:01.589Z,95090.19
2023-01-29T04:51:55.719Z,95090.81
2023-01-29T04:54:28.537Z,95084.38
2023-01-29T04:56:55.017Z,95090.47
2023-01-29T04:59:50.951Z,95090.09
2023-01-29T05:02:19.515Z,95087.56
2023-01-29T05:04:48.247Z,95086.19
2023-01-29T05:07:17.339Z,95088.88
2023-01-29T05:09:46.575Z,95090.38
2023-01-29T05:12:15.772Z,95093.72
2023-01-29T05:14:45.240Z,95090.28
2023-01-29T05:17:18.524Z,95095.03
2023-01-29T05:19:46.005Z,95095.97
2023-01-29T05:22:15.792Z,95097.31
2023-01-29T05:24:42.456Z,95103.78
2023-01-29T05:27:36.874Z,95099.28
2023-01-29T05:30:04.332Z,95093.34
2023-01-29T05:32:31.113Z,95095.88
2023-01-29T05:34:57.884Z,95085.53
2023-01-29T05:37:24.508Z,95091.69
2023-01-29T05:39:51.130Z,95095.34
2023-01-29T05:42:17.781Z,95102.28
2023-01-29T05:44:44.386Z,95100.50
2023-01-29T05:47:11.037Z,95104.84
2023-01-29T05:49:38.785Z,95102.38
2023-01-29T05:52:05.525Z,95105.84
2023-01-29T05:54:32.107Z,95117.22
2023-01-29T05:56:58.656Z,95116.22
2023-01-29T05:59:25.274Z,95111.06
2023-01-29T06:01:51.812Z,95113.09
2023-01-29T06:04:18.402Z,95113.72
2023-01-29T06:06:44.931Z,95097.53
2023-01-29T06:09:11.895Z,95096.59
2023-01-29T06:11:38.457Z,95092.16
2023-01-29T06:14:05.343Z,95083.69
2023-01-29T06:16:32.027Z,95081.91
2023-01-29T06:18:58.610Z,95076.84
2023-01-29T06:21:25.177Z,95061.94
2023-01-29T06:23:54.958Z,95058.38
2023-01-29T06:26:21.536Z,95059.09
2023-01-29T06:28:51.215Z,95066.03
2023-01-29T06:31:37.713Z,95080.13
2023-01-29T06:34:05.289Z,95079.25
2023-01-29T06:36:31.835Z,95089.22
2023-01-29T06:38:58.395Z,95100.28
2023-01-29T06:41:25.655Z,95105.09
2023-01-29T06:43:54.291Z,95106.00
2023-01-29T06:46:20.885Z,95098.66
2023-01-29T06:48:47.677Z,95084.84
2023-01-29T06:51:14.346Z,95096.75
2023-01-29T06:53:41.762Z,95104.34
2023-01-29T06:56:09.356Z,95096.00
2023-01-29T06:58:39.215Z,95099.63
2023-01-29T07:01:17.381Z,95099.84
2023-01-29T07:03:52.093Z,95107.00
2023-01-29T07:06:19.319Z,95107.84
2023-01-29T07:08:45.888Z,95113.34
2023-01-29T07:11:12.583Z,95118.13
2023-01-29T07:13:39.240Z,95120.97
2023-01-29T07:16:07.076Z,95130.31
2023-01-29T07:18:33.677Z,95128.28
2023-01-29T07:21:04.341Z,95125.44
2023-01-29T07:23:30.939Z,95132.44
2023-01-29T07:26:01.137Z,95120.16
2023-01-29T07:28:28.072Z,95130.59
2023-01-29T07:30:59.252Z,95135.38
2023-01-29T07:33:25.912Z,95127.66
2023-01-29T07:35:53.120Z,95128.94
2023-01-29T07:38:20.191Z,95125.81
2023-01-29T07:40:47.039Z,95127.50
2023-01-29T07:43:13.939Z,95130.19
2023-01-29T07:45:40.704Z,95127.00
2023-01-29T07:48:11.247Z,95132.97
2023-01-29T07:50:38.433Z,95115.84
2023-01-29T07:53:05.038Z,95129.88
2023-01-29T07:55:33.044Z,95122.22
2023-01-29T07:58:01.579Z,95136.47
2023-01-29T08:00:29.186Z,95135.78
2023-01-29T08:03:02.763Z,95139.84
2023-01-29T08:05:29.490Z,95147.91
2023-01-29T08:08:06.027Z,95149.13
2023-01-29T08:10:34.754Z,95161.75
2023-01-29T08:13:02.653Z,95156.78
2023-01-29T08:15:30.180Z,95156.00
2023-01-29T08:17:58.215Z,95167.63
2023-01-29T08:20:25.598Z,95168.31
2023-01-29T08:23:00.170Z,95181.56
2023-01-29T08:25:27.540Z,95175.97
2023-01-29T08:27:55.817Z,95174.78
2023-01-29T08:30:22.419Z,95177.59
2023-01-29T08:32:49.005Z,95172.13
2023-01-29T08:35:15.619Z,95174.81
2023-01-29T08:37:42.184Z,95172.22
2023-01-29T08:40:10.903Z,95162.56
2023-01-29T08:42:37.510Z,95171.03
2023-01-29T08:45:04.849Z,95167.66
2023-01-29T08:47:31.425Z,95167.63
2023-01-29T08:49:57.970Z,95161.09
2023-01-29T08:52:24.747Z,95168.00
2023-01-29T08:54:51.300Z,95169.19
2023-01-29T08:57:17.839Z,95181.84
2023-01-29T08:59:44.439Z,95177.56
2023-01-29T09:02:11.959Z,95183.34
2023-01-29T09:04:38.530Z,95194.50
2023-01-29T09:07:05.108Z,95196.38
2023-01-29T09:09:31.649Z,95204.13
2023-01-29T09:11:58.190Z,95201.06
2023-01-29T09:14:24.870Z,95202.06
2023-01-29T09:16:51.491Z,95199.28
2023-01-29T09:19:18.333Z,95196.38
2023-01-29T09:21:45.980Z,95197.09
2023-01-29T09:24:12.573Z,95193.22
2023-01-29T09:26:40.186Z,95195.91
2023-01-29T09:29:07.172Z,95198.00
2023-01-29T09:31:34.126Z,95203.56
2023-01-29T09:34:00.930Z,95202.56
2023-01-29T09:36:27.481Z,95199.88
2023-01-29T09:38:54.035Z,95198.47
2023-01-29T09:41:27.428Z,95194.88
2023-01-29T09:44:02.110Z,95197.75
2023-01-29T09:46:41.084Z,95201.84
2023-01-29T09:49:15.624Z,95190.00
2023-01-29T09:51:46.592Z,95200.31
2023-01-29T09:54:31.989Z,95199.59
2023-01-29T09:56:58.789Z,95201.84
2023-01-29T09:59:29.883Z,95198.25
2023-01-29T10:02:33.827Z,95188.53
2023-01-29T10:05:25.591Z,95187.06
2023-01-29T10:08:05.316Z,95189.66
2023-01-29T10:10:51.484Z,95184.19
2023-01-29T10:13:46.408Z,95170.38
2023-01-29T10:16:34.595Z,95166.44
2023-01-29T10:19:12.856Z,95171.84
2023-01-29T10:22:01.066Z,95161.91
2023-01-29T10:24:39.248Z,95164.91
2023-01-29T10:27:14.409Z,95150.97
2023-01-29T10:29:43.243Z,95145.38
2023-01-29T10:32:16.641Z,95145.88
2023-01-29T10:34:49.766Z,95136.78
2023-01-29T10:37:21.580Z,95128.78
2023-01-29T10:39:48.084Z,95119.66
2023-01-29T10:42:30.974Z,95126.03
2023-01-29T10:45:23.186Z,95118.91
2023-01-29T10:48:08.557Z,95126.66
2023-01-29T10:51:01.862Z,95124.59
2023-01-29T10:53:52.823Z,95123.84
2023-01-29T10:56:40.308Z,95123.97
2023-01-29T10:59:37.516Z,95118.28
2023-01-29T11:02:15.279Z,95125.22
2023-01-29T11:04:41.838Z,95128.69
2023-01-29T11:07:08.749Z,95133.47
2023-01-29T11:09:44.101Z,95133.03
2023-01-29T11:12:16.699Z,95128.28
2023-01-29T11:14:52.835Z,95124.78
2023-01-29T11:17:24.786Z,95123.22
2023-01-29T11:19:53.248Z,95124.78
2023-01-29T11:22:27.867Z,95123.06
2023-01-29T11:25:32.500Z,95117.00
2023-01-29T11:28:01.820Z,95119.25
2023-01-29T11:30:37.220Z,95117.50
2023-01-29T11:33:23.590Z,95119.56
2023-01-29T11:35:52.593Z,95115.72
2023-01-29T11:38:24.069Z,95109.84
2023-01-29T11:40:51.425Z,95104.00
2023-01-29T11:43:31.109Z,95101.31
2023-01-29T11:46:02.794Z,95098.44
2023-01-29T11:48:40.641Z,95094.94
2023-01-29T11:51:09.920Z,95095.25
2023-01-29T11:53:38.041Z,95101.25
2023-01-29T11:56:17.223Z,95104.09
2023-01-29T11:58:45.861Z,95101.69
2023-01-29T12:01:16.712Z,95098.38
2023-01-29T12:03:54.948Z,95103.78
2023-01-29T12:06:33.097Z,95098.28
2023-01-29T12:09:02.493Z,95098.91
2023-01-29T12:11:31.763Z,95088.81
2023-01-29T12:14:04.283Z,95074.31
2023-01-29T12:16:49.715Z,95067.84
2023-01-29T12:19:57.170Z,95057.50
2023-01-29T12:22:33.397Z,95062.44
2023-01-29T12:25:22.269Z,95058.81
2023-01-29T12:28:09.467Z,95057.88
2023-01-29T12:31:10.155Z,95060.97
2023-01-29T12:34:15.366Z,95051.78
2023-01-29T12:36:59.502Z,95049.59
2023-01-29T12:39:26.351Z,95051.19
2023-01-29T12:42:09.446Z,95039.50
2023-01-29T12:44:45.052Z,95043.25
2023-01-29T12:47:19.047Z,95030.63
2023-01-29T12:49:51.332Z,95021.78
2023-01-29T12:52:38.013Z,95029.38
2023-01-29T12:55:16.425Z,95015.41
2023-01-29T12:57:51.827Z,95015.06
2023-01-29T13:00:22.944Z,95005.84
2023-01-29T13:02:59.539Z,95007.41
2023-01-29T13:05:38.535Z,95005.91
2023-01-29T13:08:14.529Z,95008.28
2023-01-29T13:10:45.370Z,94993.94
2023-01-29T13:13:33.089Z,94996.31
2023-01-29T13:16:01.265Z,94979.72
2023-01-29T13:18:47.901Z,94964.94
2023-01-29T13:21:25.123Z,94964.13
2023-01-29T13:23:56.326Z,94957.47
2023-01-29T13:26:23.380Z,94954.66
2023-01-29T13:28:51.809Z,94954.72
2023-01-29T13:31:28.599Z,94959.44
2023-01-29T13:34:15.251Z,94958.97
2023-01-29T13:36:48.595Z,94949.25
2023-01-29T13:39:44.509Z,94934.38
2023-01-29T13:42:24.995Z,94930.41
2023-01-29T13:44:55.393Z,94933.13
2023-01-29T13:47:34.359Z,94926.78
2023-01-29T13:50:25.831Z,94923.97
2023-01-29T13:52:54.362Z,94933.28
2023-01-29T13:55:30.957Z,94928.81
2023-01-29T13:57:59.801Z,94924.13
2023-01-29T14:00:35.169Z,94925.03
2023-01-29T14:03:01.693Z,94925.31
2023-01-29T14:05:31.072Z,94928.53
2023-01-29T14:08:09.935Z,94933.97
2023-01-29T14:10:41.668Z,94945.06
2023-01-29T14:13:11.354Z,94940.03
2023-01-29T14:15:41.668Z,94944.13
2023-01-29T14:18:08.274Z,94942.69
2023-01-29T14:20:45.987Z,94934.84
2023-01-29T14:23:40.390Z,94934.78
2023-01-29T14:26:26.126Z,94948.66
2023-01-29T14:29:03.120Z,94948.69
2023-01-29T14:31:35.441Z,94947.56
2023-01-29T14:34:14.813Z,94961.19
2023-01-29T14:36:43.280Z,94959.72
2023-01-29T14:39:29.608Z,94957.34
2023-01-29T14:41:59.926Z,94949.34
2023-01-29T14:44:47.062Z,94948.63
2023-01-29T14:47:49.285Z,94964.03
2023-01-29T14:50:18.783Z,94969.59
2023-01-29T14:52:48.021Z,94967.53
2023-01-29T14:55:31.271Z,94977.56
2023-01-29T14:57:59.222Z,94979.78
2023-01-29T15:00:34.377Z,94981.19
2023-01-29T15:03:04.240Z,94977.25
2023-01-29T15:05:36.163Z,94986.44
2023-01-29T15:08:30.016Z,94996.72
2023-01-29T15:11:19.106Z,94997.00
2023-01-29T15:13:52.128Z,94997.34
2023-01-29T15:16:32.457Z,94989.09
2023-01-29T15:19:13.527Z,94989.03
2023-01-29T15:21:40.094Z,94987.28
2023-01-29T15:24:07.355Z,94993.44
2023-01-29T15:26:36.519Z,94984.06
2023-01-29T15:29:04.867Z,94987.38
2023-01-29T15:31:32.233Z,94982.03
2023-01-29T15:34:04.907Z,94988.50
2023-01-29T15:36:32.905Z,94991.31
2023-01-29T15:39:23.395Z,94997.50
2023-01-29T15:42:06.913Z,94997.63
2023-01-29T15:44:34.730Z,94998.09
2023-01-29T15:47:02.128Z,95000.00
2023-01-29T15:49:35.275Z,94995.25
2023-01-29T15:52:16.706Z,95002.13
2023-01-29T15:54:43.679Z,94997.94
2023-01-29T15:57:20.421Z,95006.13
2023-01-29T15:59:51.751Z,95004.53
2023-01-29T16:02:37.634Z,94996.25
2023-01-29T16:05:14.077Z,94999.34
2023-01-29T16:07:41.821Z,95000.16
2023-01-29T16:10:17.476Z,94996.97
2023-01-29T16:12:47.415Z,94997.38
2023-01-29T16:15:28.000Z,95003.41
2023-01-29T16:17:54.585Z,95000.03
2023-01-29T16:20:34.827Z,95000.94
2023-01-29T16:23:01.427Z,95003.06
2023-01-29T16:25:29.348Z,95002.09
2023-01-29T16:27:56.665Z,94995.72
2023-01-29T16:30:27.671Z,94993.94
2023-01-29T16:33:01.846Z,94980.63
2023-01-29T16:35:28.548Z,94985.63
2023-01-29T16:38:02.660Z,94984.13
2023-01-29T16:40:33.198Z,94994.97
2023-01-29T16:43:45.574Z,94997.25
2023-01-29T16:46:34.473Z,95003.63
2023-01-29T16:49:01.759Z,95000.47
2023-01-29T16:51:30.172Z,95004.66
2023-01-29T16:54:18.364Z,95009.03
2023-01-29T16:56:46.683Z,95011.59
2023-01-29T16:59:20.537Z,95012.00
2023-01-29T17:01:49.576Z,95011.50
2023-01-29T17:04:18.372Z,95011.09
2023-01-29T17:06:48.596Z,95009.81
2023-01-29T17:09:27.113Z,95010.50
2023-01-29T17:11:56.613Z,95015.34
2023-01-29T17:14:26.104Z,95012.78
2023-01-29T17:17:04.126Z,95002.94
2023-01-29T17:19:31.256Z,95011.06
2023-01-29T17:22:01.163Z,95004.78
2023-01-29T17:24:34.107Z,95010.72
2023-01-29T17:27:01.872Z,95007.69
2023-01-29T17:29:30.561Z,95012.03
2023-01-29T17:31:59.945Z,95011.53
2023-01-29T17:34:26.758Z,95010.72
2023-01-29T17:36:53.301Z,95016.78
2023-01-29T17:39:22.643Z,95015.63
2023-01-29T17:41:54.979Z,95017.41
2023-01-29T17:44:22.314Z,95016.31
2023-01-29T17:46:49.476Z,95024.06
2023-01-29T17:49:26.119Z,95021.25
2023-01-29T17:51:54.186Z,95020.66
2023-01-29T17:57:15.557Z,95027.28
2023-01-29T17:59:45.594Z,95020.47
2023-01-29T18:02:28.993Z,95023.56
2023-01-29T18:04:56.484Z,95019.47
2023-01-29T18:07:23.087Z,95023.78
2023-01-29T18:09:49.701Z,95025.09
2023-01-29T18:12:16.261Z,95025.75
2023-01-29T18:14:42.880Z,95022.84
2023-01-29T18:17:13.605Z,95030.63
2023-01-29T18:19:42.759Z,95031.78
2023-01-29T18:22:17.333Z,95033.72
2023-01-29T18:24:44.275Z,95034.81
2023-01-29T18:27:11.625Z,95035.88
2023-01-29T18:29:38.496Z,95045.81
2023-01-29T18:32:05.649Z,95041.97
2023-01-29T18:34:32.474Z,95039.59
2023-01-29T18:37:00.272Z,95046.88
2023-01-29T18:39:27.018Z,95035.78
2023-01-29T18:41:53.963Z,95037.53
2023-01-29T18:44:20.726Z,95031.09
2023-01-29T18:46:47.611Z,95034.03
2023-01-29T18:49:16.857Z,95028.16
2023-01-29T18:51:43.774Z,95025.00
2023-01-29T18:54:13.196Z,95030.34
2023-01-29T18:57:13.105Z,95032.81
2023-01-29T18:59:26.563Z,95033.81
2023-01-29T19:01:53.409Z,95034.03
2023-01-29T19:04:20.249Z,95027.16
2023-01-29T19:06:47.073Z,95036.91
2023-01-29T19:09:13.759Z,95033.00
2023-01-29T19:11:40.520Z,95036.44
2023-01-29T19:14:07.282Z,95035.97
2023-01-29T19:16:34.030Z,95035.44
2023-01-29T19:19:00.892Z,95039.50
2023-01-29T19:21:28.458Z,95034.13
2023-01-29T19:23:55.404Z,95040.03
2023-01-29T19:26:22.243Z,95031.28
2023-01-29T19:28:49.182Z,95035.53
2023-01-29T19:31:16.049Z,95032.34
2023-01-29T19:33:42.824Z,95028.38
2023-01-29T19:36:09.741Z,95016.44
2023-01-29T19:38:38.796Z,95022.56
2023-01-29T19:41:05.739Z,95010.34
2023-01-29T19:43:32.702Z,95023.47
2023-01-29T19:46:00.477Z,95017.75
2023-01-29T19:48:28.052Z,95016.97
2023-01-29T19:51:09.385Z,95017.00
2023-01-29T19:53:38.277Z,95015.56
2023-01-29T19:56:14.875Z,95022.25
2023-01-29T19:58:41.669Z,95012.94
2023-01-29T20:01:14.466Z,95007.53
2023-01-29T20:03:42.187Z,95013.72
2023-01-29T20:06:09.512Z,95006.59
2023-01-29T20:08:36.483Z,95013.25
2023-01-29T20:11:05.477Z,95013.25
2023-01-29T20:13:33.155Z,95009.75
2023-01-29T20:16:03.929Z,95008.22
2023-01-29T20:18:31.496Z,95014.63
2023-01-29T20:20:58.844Z,95006.63
2023-01-29T20:23:37.207Z,95012.06
2023-01-29T20:26:06.275Z,95015.53
2023-01-29T20:28:33.288Z,95015.00
2023-01-29T20:31:00.480Z,95018.81
2023-01-29T20:33:27.320Z,95017.50
2023-01-29T20:35:59.685Z,95018.06
2023-01-29T20:38:31.838Z,95023.91
2023-01-29T20:41:04.933Z,95017.25
2023-01-29T20:43:32.308Z,95021.59
2023-01-29T20:45:59.490Z,95021.34
2023-01-29T20:48:26.778Z,95027.25
2023-01-29T20:50:54.404Z,95022.44
2023-01-29T20:53:21.189Z,95020.25
2023-01-29T20:55:48.061Z,95020.31
2023-01-29T20:58:15.238Z,95014.13
2023-01-29T21:00:41.965Z,95010.16
2023-01-29T21:03:09.080Z,95010.44
2023-01-29T21:05:35.742Z,95020.81
2023-01-29T21:08:02.622Z,95013.59
2023-01-29T21:10:29.312Z,95003.81
2023-01-29T21:12:55.990Z,95003.38
2023-01-29T21:15:24.684Z,95002.31
2023-01-29T21:17:52.430Z,95003.31
2023-01-29T21:20:19.492Z,95003.84
2023-01-29T21:22:49.016Z,94995.78
2023-01-29T21:25:15.985Z,94998.94
2023-01-29T21:27:42.721Z,94994.75
2023-01-29T21:30:10.181Z,94997.47
2023-01-29T21:32:36.853Z,95001.50
2023-01-29T21:35:03.912Z,95000.34
2023-01-29T21:37:30.625Z,94996.34
2023-01-29T21:39:57.317Z,94989.44
2023-01-29T21:42:42.498Z,94991.09
2023-01-29T21:45:09.769Z,94987.91
2023-01-29T21:47:36.513Z,94991.16
2023-01-29T21:50:03.405Z,94986.13
2023-01-29T21:52:30.153Z,94991.50
2023-01-29T21:54:57.047Z,94984.00
2023-01-29T21:57:26.562Z,94977.03
2023-01-29T21:59:54.144Z,94965.03
2023-01-29T22:02:22.517Z,94970.38
2023-01-29T22:04:50.381Z,94966.13
2023-01-29T22:07:17.089Z,94964.50
2023-01-29T22:09:44.139Z,94963.69
2023-01-29T22:12:11.274Z,94971.44
2023-01-29T22:14:37.946Z,94975.72
2023-01-29T22:17:04.976Z,94972.25
2023-01-29T22:19:31.921Z,94970.56
2023-01-29T22:21:58.616Z,94962.78
2023-01-29T22:24:25.385Z,94959.38
2023-01-29T22:26:52.107Z,94961.03
2023-01-29T22:29:19.604Z,94954.19
2023-01-29T22:31:46.880Z,94960.28
2023-01-29T22:34:14.798Z,94959.78
2023-01-29T22:36:41.454Z,94948.56
2023-01-29T22:39:08.757Z,94955.75
2023-01-29T22:41:36.188Z,94948.03
2023-01-29T22:44:03.454Z,94955.31
2023-01-29T22:46:30.319Z,94941.69
2023-01-29T22:48:57.284Z,94944.63
2023-01-29T22:51:23.983Z,94931.28
2023-01-29T22:53:53.038Z,94938.22
2023-01-29T22:56:22.098Z,94935.81
2023-01-29T22:58:53.721Z,94935.56
2023-01-29T23:01:22.457Z,94948.13
2023-01-29T23:03:49.159Z,94944.41
2023-01-29T23:06:17.197Z,94943.34
2023-01-29T23:08:44.055Z,94938.53
2023-01-29T23:11:18.598Z,94945.75
2023-01-29T23:13:52.849Z,94932.66
2023-01-29T23:16:22.098Z,94929.47
2023-01-29T23:18:56.801Z,94924.88
2023-01-29T23:21:25.115Z,94921.97
2023-01-29T23:23:52.517Z,94929.50
2023-01-29T23:26:37.751Z,94925.19
2023-01-29T23:29:04.502Z,94919.09
2023-01-29T23:31:32.035Z,94906.31
2023-01-29T23:33:58.767Z,94900.75
2023-01-29T23:36:25.569Z,94898.06
2023-01-29T23:38:52.229Z,94888.38
2023-01-29T23:41:18.910Z,94884.38
2023-01-29T23:43:45.651Z,94873.97
2023-01-29T23:46:12.484Z,94864.88
2023-01-29T23:48:39.169Z,94861.47
2023-01-29T23:51:05.998Z,94859.03
2023-01-29T23:53:32.672Z,94857.78
2023-01-29T23:56:04.157Z,94863.69
2023-01-29T23:58:32.393Z,94854.91
